Time;durP1;ratioP1;P1;durP2;ratioP2;P2;SDS_P1;SDS_P2;PMS_P1;PMS_P2;Temp;Humidity;BMP_temperature;BMP_pressure;BME280_temperature;BME280_humidity;BME280_pressure;Samples;Min_cycle;Max_cycle;Signal;HPM_P1;HPM_P2
2021/01/23 06:11:36;;;;;;;7.78;3.00;;;;;;;;;;5513609;23;23756;-67
2021/01/23 06:14:02;;;;;;;10.25;2.88;;;;;;;;;;4931082;29;20055;-74
2021/01/23 06:16:34;;;;;;;7.53;3.20;;;;;;;;;;4940917;29;20031;-72
2021/01/23 06:19:01;;;;;;;10.40;3.28;;;;;;;;;;4940607;29;20363;-73
2021/01/23 06:21:56;;;;;;;7.82;3.28;;;;;;;;;;4957966;29;20028;-73
2021/01/23 06:24:31;;;;;;;10.48;3.60;;;;;;;;;;4879991;29;20034;-73
2021/01/23 06:26:58;;;;;;;10.55;3.63;;;;;;;;;;4879495;29;20120;-75
2021/01/23 06:29:39;;;;;;;11.80;3.78;;;;;;;;;;4864462;29;20388;-72
2021/01/23 06:32:16;;;;;;;8.32;3.35;;;;;;;;;;4879728;29;20396;-74
2021/01/23 06:34:46;;;;;;;8.88;3.33;;;;;;;;;;4879132;29;20025;-71
2021/01/23 06:37:19;;;;;;;9.00;3.40;;;;;;;;;;4879036;29;20048;-73
2021/01/23 06:39:57;;;;;;;9.10;3.35;;;;;;;;;;4879292;29;20037;-74
2021/01/23 06:42:23;;;;;;;6.70;3.33;;;;;;;;;;4863465;29;20036;-75
2021/01/23 06:44:49;;;;;;;7.60;3.00;;;;;;;;;;4879826;29;20100;-74
2021/01/23 06:47:15;;;;;;;7.03;3.70;;;;;;;;;;4879112;29;20063;-73
2021/01/23 06:49:42;;;;;;;12.90;3.45;;;;;;;;;;4879467;29;20031;-72
2021/01/23 06:52:09;;;;;;;10.02;3.40;;;;;;;;;;4879923;29;20062;-74
2021/01/23 06:54:35;;;;;;;10.60;3.80;;;;;;;;;;4879316;29;20096;-74
2021/01/23 06:57:03;;;;;;;10.75;3.90;;;;;;;;;;4863805;29;20079;-73
2021/01/23 06:59:33;;;;;;;7.60;3.05;;;;;;;;;;4879348;29;20033;-74
2021/01/23 07:02:00;;;;;;;10.50;3.22;;;;;;;;;;4939670;29;20114;-73
2021/01/23 07:04:27;;;;;;;11.30;4.05;;;;;;;;;;4956966;29;20023;-73
2021/01/23 07:06:54;;;;;;;10.60;3.60;;;;;;;;;;4956792;29;20040;-74
2021/01/23 07:09:20;;;;;;;9.20;3.53;;;;;;;;;;4939889;29;20481;-73
2021/01/23 07:11:46;;;;;;;9.93;3.55;;;;;;;;;;4956782;29;20066;-72
2021/01/23 07:14:12;;;;;;;7.80;3.65;;;;;;;;;;4939527;29;20023;-77
2021/01/23 07:16:40;;;;;;;8.25;3.47;;;;;;;;;;4957269;29;20474;-73
2021/01/23 07:19:09;;;;;;;10.13;3.55;;;;;;;;;;4957110;29;20526;-73
2021/01/23 07:21:36;;;;;;;11.02;3.30;;;;;;;;;;4939293;29;20475;-73
2021/01/23 15:58:07;;;;;;;21.98;11.85;;;;;;;;;;4873843;23;19922;-70
2021/01/23 16:00:34;;;;;;;23.27;10.30;;;;;;;;;;4956005;29;20038;-69
2021/01/23 16:03:00;;;;;;;17.52;8.30;;;;;;;;;;4938129;29;20414;-69
2021/01/23 16:05:26;;;;;;;19.08;9.30;;;;;;;;;;4954673;29;20111;-68
2021/01/23 16:07:52;;;;;;;17.30;7.90;;;;;;;;;;4956118;29;20038;-68
2021/01/23 16:10:20;;;;;;;20.52;8.57;;;;;;;;;;4955267;29;20035;-66
2021/01/23 16:12:46;;;;;;;21.20;9.32;;;;;;;;;;4955921;29;20019;-67
2021/01/23 16:15:12;;;;;;;18.92;9.02;;;;;;;;;;4955125;28;20034;-67
2021/01/23 16:17:38;;;;;;;18.40;8.32;;;;;;;;;;4955697;29;20102;-67
2021/01/23 16:20:05;;;;;;;74.45;35.45;;;;;;;;;;4955923;29;20422;-65
2021/01/23 16:22:31;;;;;;;26.08;11.48;;;;;;;;;;4956345;29;20074;-68
2021/01/23 16:24:57;;;;;;;24.42;11.65;;;;;;;;;;4955327;29;20034;-67
2021/01/23 16:27:23;;;;;;;19.50;10.25;;;;;;;;;;4955361;29;20042;-66
2021/01/23 16:29:49;;;;;;;23.00;11.15;;;;;;;;;;4955190;29;20114;-66
2021/01/23 16:32:15;;;;;;;35.03;14.75;;;;;;;;;;4955940;29;20031;-64
2021/01/23 16:34:42;;;;;;;33.33;14.82;;;;;;;;;;4949415;28;20468;-67
2021/01/23 16:37:09;;;;;;;24.67;13.00;;;;;;;;;;4937764;29;20545;-66
2021/01/23 16:39:35;;;;;;;24.02;12.00;;;;;;;;;;4936330;29;20059;-65
2021/01/23 16:42:04;;;;;;;33.47;13.43;;;;;;;;;;4950707;29;20015;-67
2021/01/23 16:44:30;;;;;;;25.88;12.77;;;;;;;;;;4953720;29;20075;-68
2021/01/23 16:46:56;;;;;;;25.33;12.88;;;;;;;;;;4954371;29;20035;-69
2021/01/23 16:49:22;;;;;;;26.30;11.90;;;;;;;;;;4937764;29;20090;-70
2021/01/23 16:51:48;;;;;;;24.65;12.43;;;;;;;;;;4948231;29;20510;-68
2021/01/23 16:54:16;;;;;;;28.02;13.02;;;;;;;;;;4946133;29;20039;-68
2021/01/23 16:56:42;;;;;;;25.23;12.10;;;;;;;;;;4944193;29;20067;-67
2021/01/23 16:59:08;;;;;;;28.58;11.43;;;;;;;;;;4946533;29;20458;-66
2021/01/23 17:01:34;;;;;;;25.73;11.70;;;;;;;;;;4931277;29;20063;-67
2021/01/23 17:04:00;;;;;;;33.25;14.38;;;;;;;;;;4946062;29;20085;-66
2021/01/23 17:06:27;;;;;;;26.92;12.80;;;;;;;;;;4943842;29;20031;-68
2021/01/23 17:08:54;;;;;;;33.10;14.55;;;;;;;;;;4941878;29;20107;-66
2021/01/23 17:11:20;;;;;;;47.47;18.05;;;;;;;;;;4948414;29;20081;-66
2021/01/23 17:13:46;;;;;;;50.88;25.23;;;;;;;;;;4945192;29;20020;-65
2021/01/23 17:16:12;;;;;;;92.55;46.08;;;;;;;;;;4944754;29;20027;-67
2021/01/23 17:18:38;;;;;;;43.78;24.25;;;;;;;;;;4943423;29;20043;-67
2021/01/23 17:21:04;;;;;;;30.67;15.05;;;;;;;;;;4948362;29;20020;-67
2021/01/23 17:23:31;;;;;;;27.52;14.50;;;;;;;;;;4948734;29;20023;-68
2021/01/23 17:25:59;;;;;;;27.60;13.95;;;;;;;;;;4950248;28;20035;-66
2021/01/23 17:28:26;;;;;;;30.55;14.65;;;;;;;;;;4950174;29;20031;-65
2021/01/23 17:30:54;;;;;;;28.17;13.48;;;;;;;;;;4955067;29;20016;-68
2021/01/23 17:33:20;;;;;;;21.75;10.20;;;;;;;;;;4954721;29;20023;-69
2021/01/23 17:35:47;;;;;;;25.20;12.68;;;;;;;;;;4953616;28;20038;-68
2021/01/23 17:38:15;;;;;;;36.65;16.50;;;;;;;;;;4953074;29;20482;-69
2021/01/23 17:40:48;;;;;;;57.50;22.50;;;;;;;;;;4954153;29;20076;-69
2021/01/23 17:43:14;;;;;;;59.33;23.33;;;;;;;;;;4955253;29;20083;-69
2021/01/23 17:45:40;;;;;;;47.75;19.98;;;;;;;;;;4954984;29;20028;-66
2021/01/23 17:48:07;;;;;;;45.00;18.33;;;;;;;;;;4950782;29;20070;-66
2021/01/23 17:50:34;;;;;;;38.15;17.20;;;;;;;;;;4947161;29;20041;-72
2021/01/23 17:53:00;;;;;;;36.90;15.90;;;;;;;;;;4949144;29;20102;-67
2021/01/23 17:55:29;;;;;;;35.42;16.77;;;;;;;;;;4953920;29;20351;-65
2021/01/23 17:57:55;;;;;;;36.80;16.63;;;;;;;;;;4956641;29;20050;-67
2021/01/23 18:00:21;;;;;;;39.92;18.77;;;;;;;;;;4957358;29;20030;-66
2021/01/23 18:02:47;;;;;;;39.05;19.08;;;;;;;;;;4957291;29;20498;-68
2021/01/23 18:05:13;;;;;;;43.13;21.08;;;;;;;;;;4952298;29;20039;-67
2021/01/23 18:07:40;;;;;;;50.25;23.00;;;;;;;;;;4933155;29;20023;-66
2021/01/23 18:10:07;;;;;;;50.30;23.33;;;;;;;;;;4958685;29;20094;-66
2021/01/23 18:12:33;;;;;;;39.72;19.58;;;;;;;;;;4953963;29;20023;-67
2021/01/23 18:14:59;;;;;;;38.25;18.83;;;;;;;;;;4957487;29;20027;-68
2021/01/23 18:17:25;;;;;;;40.20;18.38;;;;;;;;;;4957272;29;20031;-68
2021/01/23 18:19:51;;;;;;;38.05;18.13;;;;;;;;;;4957566;29;20035;-66
2021/01/23 18:22:17;;;;;;;33.47;16.08;;;;;;;;;;4955770;29;20035;-66
2021/01/23 18:24:43;;;;;;;32.97;16.50;;;;;;;;;;4955247;29;20649;-66
2021/01/23 18:27:10;;;;;;;31.17;15.48;;;;;;;;;;4952415;29;20156;-67
2021/01/23 18:29:36;;;;;;;34.58;16.80;;;;;;;;;;4930870;29;20447;-65
2021/01/23 18:32:02;;;;;;;27.02;13.18;;;;;;;;;;4946338;29;20055;-66
2021/01/23 18:34:28;;;;;;;27.38;12.70;;;;;;;;;;4948648;29;20028;-65
2021/01/23 18:36:54;;;;;;;23.75;13.32;;;;;;;;;;4943927;29;20039;-66
2021/01/23 18:39:21;;;;;;;25.77;12.60;;;;;;;;;;4942089;28;20099;-67
2021/01/23 18:41:47;;;;;;;20.38;10.02;;;;;;;;;;4928571;29;20016;-70
2021/01/23 18:44:15;;;;;;;20.38;11.10;;;;;;;;;;4945899;29;20487;-70
2021/01/23 18:46:41;;;;;;;21.05;10.55;;;;;;;;;;4948063;29;20027;-69
2021/01/23 18:49:08;;;;;;;24.55;11.57;;;;;;;;;;4949885;29;20494;-66
2021/01/23 18:51:35;;;;;;;19.85;11.45;;;;;;;;;;5078764;23;20071;-69
2021/01/23 18:54:01;;;;;;;22.25;11.23;;;;;;;;;;4957731;28;20035;-71
2021/01/23 18:56:27;;;;;;;24.33;11.70;;;;;;;;;;4964066;28;20073;-70
2021/01/23 18:58:53;;;;;;;27.23;13.32;;;;;;;;;;4985104;28;20030;-69
2021/01/23 19:01:20;;;;;;;30.48;14.15;;;;;;;;;;4986465;28;20497;-70
2021/01/23 19:03:46;;;;;;;29.23;15.15;;;;;;;;;;4984722;28;20031;-70
2021/01/23 19:06:13;;;;;;;31.73;15.82;;;;;;;;;;4982035;28;20096;-71
2021/01/23 19:08:39;;;;;;;30.42;15.77;;;;;;;;;;4980923;28;20023;-69
2021/01/23 19:11:05;;;;;;;35.97;16.27;;;;;;;;;;4978622;28;20034;-69
2021/01/23 19:13:31;;;;;;;28.92;15.07;;;;;;;;;;4982492;28;20038;-69
2021/01/23 19:15:57;;;;;;;31.33;15.45;;;;;;;;;;4995730;28;20018;-71
2021/01/23 19:18:23;;;;;;;30.25;16.40;;;;;;;;;;4995813;28;20026;-62
2021/01/23 19:20:50;;;;;;;31.75;16.83;;;;;;;;;;4985439;28;20018;-62
2021/01/23 19:23:16;;;;;;;29.42;17.52;;;;;;;;;;4986262;28;20023;-62
2021/01/23 19:25:43;;;;;;;29.63;16.52;;;;;;;;;;4982688;28;20418;-62
2021/01/23 19:28:09;;;;;;;29.40;17.17;;;;;;;;;;4974372;28;20090;-62
2021/01/23 19:30:35;;;;;;;31.58;17.30;;;;;;;;;;4974050;28;20054;-61
2021/01/23 19:33:01;;;;;;;26.88;16.48;;;;;;;;;;4982734;28;20050;-63
2021/01/23 19:35:27;;;;;;;29.95;15.23;;;;;;;;;;4975460;28;20414;-62
2021/01/23 19:37:53;;;;;;;27.73;14.90;;;;;;;;;;4975316;28;20027;-62
2021/01/23 19:40:19;;;;;;;25.08;14.90;;;;;;;;;;4974647;28;20058;-61
2021/01/23 19:42:45;;;;;;;24.58;14.38;;;;;;;;;;4976145;28;20137;-62
2021/01/23 19:45:12;;;;;;;33.28;16.15;;;;;;;;;;4989431;28;20026;-62
2021/01/23 19:47:38;;;;;;;31.77;18.02;;;;;;;;;;4989141;28;20390;-61
2021/01/23 19:50:04;;;;;;;33.22;17.58;;;;;;;;;;4985842;28;20034;-61
2021/01/23 19:52:30;;;;;;;38.13;18.95;;;;;;;;;;4983873;28;20043;-61
2021/01/23 19:54:56;;;;;;;39.78;19.67;;;;;;;;;;4984362;28;20462;-62
2021/01/23 19:57:22;;;;;;;34.08;17.98;;;;;;;;;;4994093;28;20393;-63
2021/01/23 19:59:49;;;;;;;40.40;19.75;;;;;;;;;;4982582;28;20033;-60
2021/01/23 20:02:15;;;;;;;35.13;18.15;;;;;;;;;;4983194;28;20019;-61
2021/01/23 20:04:41;;;;;;;55.35;24.20;;;;;;;;;;4985624;28;20489;-64
2021/01/23 20:07:07;;;;;;;70.70;26.67;;;;;;;;;;4976627;28;20030;-62
2021/01/23 20:09:33;;;;;;;120.18;36.17;;;;;;;;;;4980836;28;20058;-62
2021/01/23 20:11:59;;;;;;;44.17;18.55;;;;;;;;;;4965868;28;20102;-62
2021/01/23 20:14:25;;;;;;;29.75;14.93;;;;;;;;;;4965043;28;20073;-62
2021/01/23 20:16:52;;;;;;;32.92;15.50;;;;;;;;;;4982740;28;20034;-62
2021/01/23 20:19:18;;;;;;;37.05;17.10;;;;;;;;;;4982793;28;20057;-62
2021/01/23 20:21:45;;;;;;;42.30;19.70;;;;;;;;;;4984253;28;20038;-63
2021/01/23 20:24:12;;;;;;;47.13;22.30;;;;;;;;;;4983831;28;20023;-63
2021/01/23 20:26:38;;;;;;;44.95;20.70;;;;;;;;;;4984192;28;20022;-64
2021/01/23 20:29:04;;;;;;;42.25;19.88;;;;;;;;;;4983743;28;20495;-63
2021/01/23 20:31:30;;;;;;;50.55;22.13;;;;;;;;;;4984983;28;20038;-63
2021/01/23 20:33:56;;;;;;;48.70;22.58;;;;;;;;;;4983906;28;20018;-63
2021/01/23 20:36:22;;;;;;;42.30;21.15;;;;;;;;;;4981175;28;20061;-62
2021/01/23 20:38:48;;;;;;;46.42;21.27;;;;;;;;;;4985166;28;20027;-63
2021/01/23 20:41:15;;;;;;;42.17;20.48;;;;;;;;;;4973034;28;20023;-63
2021/01/23 20:43:41;;;;;;;37.80;17.38;;;;;;;;;;4983076;28;20030;-62
2021/01/23 20:46:08;;;;;;;30.40;15.27;;;;;;;;;;4980290;28;20018;-61
2021/01/23 20:48:34;;;;;;;31.17;14.82;;;;;;;;;;4978494;28;20385;-62
2021/01/23 20:51:01;;;;;;;37.05;18.08;;;;;;;;;;4981109;28;20022;-62
2021/01/23 20:53:27;;;;;;;82.97;38.38;;;;;;;;;;4985257;28;20117;-62
2021/01/23 20:55:53;;;;;;;42.53;19.42;;;;;;;;;;4982312;28;20018;-62
2021/01/23 20:58:20;;;;;;;50.10;23.90;;;;;;;;;;4983320;28;20030;-62
2021/01/23 21:00:46;;;;;;;20.15;10.80;;;;;;;;;;4984679;28;20018;-62
2021/01/23 21:03:12;;;;;;;26.35;13.70;;;;;;;;;;4987647;28;20034;-62
2021/01/23 21:05:39;;;;;;;21.75;12.15;;;;;;;;;;4987294;28;20018;-61
2021/01/23 21:08:05;;;;;;;16.08;9.57;;;;;;;;;;4988486;28;20489;-62
2021/01/23 21:10:31;;;;;;;32.13;17.52;;;;;;;;;;4989768;28;20049;-63
2021/01/23 21:12:57;;;;;;;23.80;12.35;;;;;;;;;;4997839;28;20026;-62
2021/01/23 21:15:23;;;;;;;17.63;8.35;;;;;;;;;;4997899;28;20069;-62
2021/01/23 21:17:49;;;;;;;17.45;9.02;;;;;;;;;;4991244;28;20030;-62
2021/01/23 21:20:16;;;;;;;24.02;12.00;;;;;;;;;;4981465;28;20430;-63
2021/01/23 21:22:42;;;;;;;23.17;11.65;;;;;;;;;;4984424;28;20033;-61
2021/01/23 21:25:09;;;;;;;6.97;4.13;;;;;;;;;;4985991;28;20111;-61
2021/01/23 21:27:35;;;;;;;13.80;6.80;;;;;;;;;;4985930;28;20035;-61
2021/01/23 21:30:01;;;;;;;15.23;7.35;;;;;;;;;;4987622;28;20034;-63
2021/01/23 21:32:27;;;;;;;10.60;5.95;;;;;;;;;;4986169;28;20023;-62
2021/01/23 21:34:54;;;;;;;11.35;5.28;;;;;;;;;;4987656;28;20029;-63
2021/01/23 21:37:21;;;;;;;9.15;4.80;;;;;;;;;;4987896;28;20126;-63
2021/01/23 21:39:47;;;;;;;6.43;4.10;;;;;;;;;;4978232;28;20131;-63
2021/01/23 21:42:13;;;;;;;13.02;6.38;;;;;;;;;;4978082;28;20027;-62
2021/01/23 21:44:43;;;;;;;25.45;12.35;;;;;;;;;;4978027;28;20493;-62
2021/01/23 21:47:11;;;;;;;25.73;12.20;;;;;;;;;;4978378;28;20508;-62
2021/01/23 21:49:37;;;;;;;30.48;14.85;;;;;;;;;;4983232;28;20031;-63
2021/01/23 21:52:04;;;;;;;18.33;8.48;;;;;;;;;;4962406;28;20102;-62
2021/01/23 21:54:30;;;;;;;18.55;9.00;;;;;;;;;;4959387;28;20036;-62
2021/01/23 21:56:57;;;;;;;13.63;6.10;;;;;;;;;;4966554;28;20416;-64
2021/01/23 21:59:23;;;;;;;8.88;4.65;;;;;;;;;;4967653;28;20025;-63
2021/01/23 22:01:50;;;;;;;17.13;7.68;;;;;;;;;;4951587;28;20035;-63
2021/01/23 22:04:16;;;;;;;17.17;7.70;;;;;;;;;;4977300;28;20031;-64
2021/01/23 22:06:42;;;;;;;11.88;5.72;;;;;;;;;;4968221;28;20382;-63
2021/01/23 22:09:08;;;;;;;11.98;6.15;;;;;;;;;;4968249;28;20026;-62
2021/01/23 22:11:34;;;;;;;7.53;4.38;;;;;;;;;;4964626;28;20027;-64
2021/01/23 22:14:01;;;;;;;12.50;6.25;;;;;;;;;;4962172;28;20485;-64
2021/01/23 22:16:27;;;;;;;9.27;5.05;;;;;;;;;;4960187;28;20028;-64
2021/01/23 22:18:53;;;;;;;7.85;3.83;;;;;;;;;;4958080;29;20019;-63
2021/01/23 22:21:19;;;;;;;10.13;5.10;;;;;;;;;;4962867;28;20069;-63
2021/01/23 22:23:45;;;;;;;18.08;8.05;;;;;;;;;;4963793;28;20027;-62
2021/01/23 22:26:11;;;;;;;12.63;6.13;;;;;;;;;;4966892;28;20032;-63
2021/01/23 22:28:37;;;;;;;11.30;5.47;;;;;;;;;;4967203;28;20438;-63
2021/01/23 22:31:03;;;;;;;14.68;7.13;;;;;;;;;;4967393;28;20035;-62
2021/01/23 22:33:29;;;;;;;37.33;17.30;;;;;;;;;;4966151;28;20046;-63
2021/01/23 22:35:57;;;;;;;15.40;7.05;;;;;;;;;;4963031;28;20055;-64
2021/01/23 22:38:23;;;;;;;10.73;5.38;;;;;;;;;;4962829;28;20062;-63
2021/01/23 22:40:49;;;;;;;10.73;5.22;;;;;;;;;;4963203;28;20027;-64
2021/01/23 22:43:15;;;;;;;9.25;4.82;;;;;;;;;;4967063;28;20500;-64
2021/01/23 22:45:41;;;;;;;8.57;4.90;;;;;;;;;;4966544;28;20081;-64
2021/01/23 22:48:08;;;;;;;13.05;6.35;;;;;;;;;;4966026;28;20058;-63
2021/01/23 22:50:34;;;;;;;13.13;5.55;;;;;;;;;;4967266;28;20134;-63
2021/01/23 22:53:00;;;;;;;8.30;4.60;;;;;;;;;;4980073;28;20047;-63
2021/01/23 22:55:26;;;;;;;15.30;7.35;;;;;;;;;;4985294;28;20015;-62
2021/01/23 22:57:53;;;;;;;14.93;6.28;;;;;;;;;;4980365;28;20473;-63
2021/01/23 23:00:32;;;;;;;8.15;4.38;;;;;;;;;;4986328;28;20015;-62
2021/01/23 23:02:58;;;;;;;17.65;8.07;;;;;;;;;;4983917;28;20015;-62
2021/01/23 23:05:24;;;;;;;15.02;6.13;;;;;;;;;;4984981;28;20025;-62
2021/01/23 23:07:50;;;;;;;16.08;6.38;;;;;;;;;;4986449;28;20385;-62
2021/01/23 23:10:16;;;;;;;13.52;6.43;;;;;;;;;;4987930;28;20030;-63
2021/01/23 23:12:42;;;;;;;32.92;15.18;;;;;;;;;;4991158;28;20097;-63
2021/01/23 23:15:09;;;;;;;17.38;8.52;;;;;;;;;;4986078;28;20537;-63
2021/01/23 23:17:35;;;;;;;14.70;7.55;;;;;;;;;;4984429;28;20053;-64
2021/01/23 23:20:01;;;;;;;15.20;6.35;;;;;;;;;;4984675;28;20493;-63
2021/01/23 23:22:30;;;;;;;6.82;3.65;;;;;;;;;;4976371;28;20054;-63
2021/01/23 23:24:56;;;;;;;11.23;4.90;;;;;;;;;;4973697;28;20023;-63
2021/01/23 23:27:22;;;;;;;15.20;6.88;;;;;;;;;;4974308;28;20034;-64
2021/01/23 23:29:49;;;;;;;12.52;5.35;;;;;;;;;;4974835;28;20022;-63
2021/01/23 23:32:15;;;;;;;13.45;7.13;;;;;;;;;;4975052;28;20015;-63
2021/01/23 23:34:41;;;;;;;12.02;5.93;;;;;;;;;;4974076;28;20035;-63
2021/01/23 23:37:07;;;;;;;14.88;6.00;;;;;;;;;;4973853;28;20030;-64
2021/01/23 23:39:33;;;;;;;24.15;9.82;;;;;;;;;;4973537;28;20414;-63
2021/01/23 23:41:59;;;;;;;45.13;17.83;;;;;;;;;;4974189;28;20030;-63
2021/01/23 23:44:25;;;;;;;9.77;4.25;;;;;;;;;;4974407;28;20058;-64
2021/01/23 23:46:51;;;;;;;11.85;4.65;;;;;;;;;;4973782;28;20034;-63
2021/01/23 23:49:17;;;;;;;6.90;3.28;;;;;;;;;;4974962;28;20490;-64
2021/01/23 23:51:43;;;;;;;13.30;6.47;;;;;;;;;;4975535;28;20410;-63
2021/01/23 23:54:09;;;;;;;11.00;4.68;;;;;;;;;;4975101;28;20023;-63
2021/01/23 23:56:35;;;;;;;24.35;10.10;;;;;;;;;;4976245;28;20052;-62
2021/01/23 23:59:01;;;;;;;12.70;5.82;;;;;;;;;;4975736;28;20035;-63
